Terminal Aerodrome Forecast
Issued by NWS Green Bay, WI

Home | Current Version | Previous Version | Text Only | Print | Product List | Glossary Off
Versions: 1 2 3 4 5 6 7 8 9 10 11 12 13 14 15 16 17 18 19 20 21 22 23 24 25 26 27 28 29 30 31 32 33 34 35 36 37 38

000
FTUS43 KGRB 140500 RRA
TAFGRB
TAF
KGRB 140540Z 1406/1506 03016G26KT 4SM -RA BR OVC010
     FM140800 02016G26KT 3SM -RASN BR OVC009
     FM141000 36014G24KT 1 1/2SM -SN OVC006
     FM141300 35020G30KT 5SM -SN BKN018
     FM141800 34017G27KT P6SM BKN035
     FM150000 35012KT P6SM SCT050=

USA.gov is the U.S. government's official web portal to all federal, state and local government web resources and services.